Time;durP1;ratioP1;P1;durP2;ratioP2;P2;SDS_P1;SDS_P2;PMS_P1;PMS_P2;Temp;Humidity;BMP_temperature;BMP_pressure;BME280_temperature;BME280_humidity;BME280_pressure;Samples;Min_cycle;Max_cycle;Signal;HPM_P1;HPM_P2
2022/07/08 00:02:07;;;;;;;0.45;0.45;;;14.60;99.90;;;;;;5033806;28;20227;-53
2022/07/08 00:04:33;;;;;;;0.73;0.40;;;14.50;99.90;;;;;;5033446;28;20218;-49
2022/07/08 00:06:59;;;;;;;0.55;0.40;;;14.40;99.90;;;;;;5033453;28;20180;-49
2022/07/08 00:09:28;;;;;;;0.63;0.50;;;14.50;99.90;;;;;;5033413;28;20175;-50
2022/07/08 00:11:56;;;;;;;0.40;0.40;;;14.40;99.90;;;;;;5033134;28;20246;-50
2022/07/08 00:14:23;;;;;;;0.40;0.40;;;14.40;99.90;;;;;;5033086;28;20175;-50
2022/07/08 00:16:48;;;;;;;0.47;0.35;;;14.30;99.90;;;;;;5033122;28;20176;-49
2022/07/08 00:19:16;;;;;;;0.45;0.40;;;14.10;99.90;;;;;;5033313;28;20179;-52
2022/07/08 00:21:46;;;;;;;0.35;0.35;;;14.00;99.90;;;;;;5033327;28;20176;-51
2022/07/08 00:24:12;;;;;;;1.15;0.50;;;13.90;99.90;;;;;;5033165;28;20281;-49
2022/07/08 00:26:39;;;;;;;0.63;0.55;;;13.90;99.90;;;;;;5033193;28;20286;-51
2022/07/08 00:29:05;;;;;;;1.23;0.57;;;13.80;99.90;;;;;;5033055;28;20245;-50
2022/07/08 00:31:30;;;;;;;0.30;0.30;;;13.90;99.90;;;;;;5033533;28;20525;-50
2022/07/08 00:33:56;;;;;;;0.57;0.57;;;13.80;99.90;;;;;;5033277;28;20180;-51
2022/07/08 00:36:22;;;;;;;0.63;0.50;;;13.80;99.90;;;;;;5015597;28;20176;-49
2022/07/08 00:38:48;;;;;;;0.40;0.40;;;13.70;99.90;;;;;;5033596;28;20172;-49
2022/07/08 00:41:14;;;;;;;1.35;0.60;;;13.70;99.90;;;;;;5037049;28;20183;-49
2022/07/08 00:43:42;;;;;;;1.30;0.63;;;13.70;99.90;;;;;;5036910;28;20691;-49
2022/07/08 00:46:08;;;;;;;0.50;0.47;;;13.80;99.90;;;;;;5019642;28;20207;-50
2022/07/08 00:48:35;;;;;;;1.80;0.73;;;13.80;99.90;;;;;;5036938;28;20183;-51
2022/07/08 00:51:04;;;;;;;0.52;0.40;;;13.70;99.90;;;;;;5037003;28;20259;-49
2022/07/08 00:53:31;;;;;;;0.57;0.57;;;13.60;99.90;;;;;;5036814;28;20203;-50
2022/07/08 00:55:58;;;;;;;0.68;0.50;;;13.50;99.90;;;;;;5036771;28;20180;-51
2022/07/08 00:58:25;;;;;;;0.55;0.55;;;13.50;99.90;;;;;;5036658;28;20533;-51
2022/07/08 01:00:52;;;;;;;0.40;0.40;;;13.50;99.90;;;;;;5036794;28;20188;-50
2022/07/08 01:03:19;;;;;;;0.43;0.43;;;13.60;99.90;;;;;;5036680;28;20259;-50
2022/07/08 01:05:45;;;;;;;2.28;0.75;;;13.60;99.90;;;;;;5036498;28;20168;-49
2022/07/08 01:08:11;;;;;;;1.17;0.80;;;13.60;99.90;;;;;;5018880;28;20179;-49
2022/07/08 01:10:38;;;;;;;0.47;0.47;;;13.50;99.90;;;;;;5036504;28;20183;-49
2022/07/08 01:13:04;;;;;;;0.68;0.68;;;13.40;99.90;;;;;;5036370;28;20168;-49
2022/07/08 01:15:30;;;;;;;0.30;0.30;;;13.30;99.90;;;;;;5036506;28;20180;-51
2022/07/08 01:17:56;;;;;;;0.43;0.43;;;13.20;99.90;;;;;;5036366;28;20176;-48
2022/07/08 01:20:22;;;;;;;0.57;0.57;;;13.20;99.90;;;;;;5036338;28;20168;-49
2022/07/08 01:22:47;;;;;;;1.02;0.57;;;13.20;99.90;;;;;;5018874;28;20263;-52
2022/07/08 01:25:14;;;;;;;1.00;0.80;;;13.20;99.90;;;;;;5036094;28;20692;-49
2022/07/08 01:27:39;;;;;;;0.70;0.70;;;13.20;99.90;;;;;;5036090;28;20699;-48
2022/07/08 01:30:06;;;;;;;0.50;0.50;;;13.20;99.90;;;;;;5018543;28;20176;-50
2022/07/08 01:32:33;;;;;;;1.13;0.57;;;13.20;99.90;;;;;;5036156;28;20180;-49
2022/07/08 01:34:59;;;;;;;0.57;0.57;;;13.20;99.90;;;;;;5036014;28;20195;-50
2022/07/08 01:37:25;;;;;;;0.52;0.47;;;13.10;99.90;;;;;;5036053;28;20172;-50
2022/07/08 01:39:51;;;;;;;0.88;0.60;;;13.20;99.90;;;;;;5035857;28;20625;-50
2022/07/08 01:42:16;;;;;;;0.55;0.50;;;13.20;99.90;;;;;;5036084;28;20191;-49
2022/07/08 01:44:42;;;;;;;0.70;0.70;;;13.20;99.90;;;;;;5036020;28;20270;-49
2022/07/08 01:47:08;;;;;;;0.50;0.50;;;13.10;99.90;;;;;;5036219;28;20175;-49
2022/07/08 01:49:34;;;;;;;0.85;0.70;;;13.10;99.90;;;;;;5035838;28;20176;-50
2022/07/08 01:52:00;;;;;;;1.52;0.88;;;13.00;99.90;;;;;;5035040;28;20172;-50
2022/07/08 01:54:25;;;;;;;0.52;0.50;;;12.90;99.90;;;;;;5035560;28;20183;-48
2022/07/08 01:57:13;;;;;;;0.57;0.55;;;12.80;99.90;;;;;;5035551;28;20263;-51
2022/07/08 01:59:37;;;;;;;0.65;0.60;;;12.80;99.90;;;;;;5035370;28;20207;-53
2022/07/08 02:02:03;;;;;;;1.23;0.57;;;12.80;99.90;;;;;;5035574;28;20259;-49
2022/07/08 02:04:29;;;;;;;0.70;0.50;;;12.90;99.90;;;;;;5035422;28;20214;-49
2022/07/08 02:06:55;;;;;;;0.88;0.63;;;12.90;99.90;;;;;;5035386;28;20172;-49
2022/07/08 02:09:21;;;;;;;0.60;0.57;;;12.90;99.90;;;;;;5035563;28;20172;-50
2022/07/08 02:14:32;;;;;;;0.57;0.50;;;12.90;99.90;;;;;;5035324;28;20199;-50
2022/07/08 02:16:58;;;;;;;1.02;0.45;;;12.80;99.90;;;;;;5035268;28;20258;-49
2022/07/08 02:19:24;;;;;;;0.77;0.77;;;12.80;99.90;;;;;;5017555;28;20318;-48
2022/07/08 02:21:50;;;;;;;0.57;0.52;;;12.70;99.90;;;;;;5017922;28;20188;-49
2022/07/08 02:24:15;;;;;;;2.33;1.00;;;12.70;99.90;;;;;;5035092;28;20207;-49
2022/07/08 02:26:41;;;;;;;1.15;0.57;;;12.80;99.90;;;;;;5035224;28;20199;-49
2022/07/08 02:29:07;;;;;;;1.42;0.60;;;12.80;99.90;;;;;;5035193;28;20192;-49
2022/07/08 02:31:33;;;;;;;0.90;0.90;;;12.70;99.90;;;;;;5035147;28;20179;-51
2022/07/08 02:33:58;;;;;;;1.30;0.80;;;12.70;99.90;;;;;;5034867;28;20176;-50
2022/07/08 02:36:24;;;;;;;0.47;0.43;;;12.70;99.90;;;;;;5035112;28;20203;-50
2022/07/08 02:38:50;;;;;;;0.90;0.90;;;12.60;99.90;;;;;;5034993;28;20249;-49
2022/07/08 02:41:16;;;;;;;0.43;0.43;;;12.60;99.90;;;;;;5034957;28;20172;-53
2022/07/08 02:43:42;;;;;;;0.57;0.40;;;12.70;99.90;;;;;;5034610;28;20291;-49
2022/07/08 02:46:07;;;;;;;0.55;0.55;;;12.60;99.90;;;;;;5034688;28;20172;-50
2022/07/08 02:48:34;;;;;;;0.73;0.57;;;12.50;99.90;;;;;;5034565;28;20183;-51
2022/07/08 02:51:00;;;;;;;0.73;0.70;;;12.40;99.90;;;;;;5034816;28;20187;-50
2022/07/08 02:53:25;;;;;;;0.50;0.50;;;12.30;99.90;;;;;;5034742;28;20172;-48
2022/07/08 02:55:51;;;;;;;0.50;0.50;;;12.30;99.90;;;;;;5034619;28;20183;-49
2022/07/08 02:58:17;;;;;;;1.73;0.57;;;12.30;99.90;;;;;;5034435;28;20222;-49
2022/07/08 03:00:42;;;;;;;1.42;0.68;;;12.30;99.90;;;;;;5016707;28;20192;-49
2022/07/08 03:03:08;;;;;;;0.90;0.70;;;12.40;99.90;;;;;;5033326;28;20173;-51
2022/07/08 03:05:33;;;;;;;1.40;0.82;;;12.40;99.90;;;;;;5034545;28;20616;-51
2022/07/08 03:07:59;;;;;;;0.60;0.50;;;12.40;99.90;;;;;;5034237;28;20207;-51
2022/07/08 03:10:25;;;;;;;0.60;0.60;;;12.40;99.90;;;;;;5034349;28;20176;-49
2022/07/08 03:12:50;;;;;;;0.60;0.60;;;12.40;99.90;;;;;;5016676;28;20187;-49
2022/07/08 03:15:16;;;;;;;0.80;0.80;;;12.40;99.90;;;;;;5034148;28;20187;-48
2022/07/08 03:17:41;;;;;;;0.85;0.63;;;12.40;99.90;;;;;;5034006;28;20184;-49
2022/07/08 03:20:07;;;;;;;0.80;0.80;;;12.50;99.90;;;;;;5016394;28;20641;-53
2022/07/08 03:22:34;;;;;;;0.40;0.40;;;12.50;99.90;;;;;;5034134;28;20625;-52
2022/07/08 03:25:00;;;;;;;1.60;1.00;;;12.40;99.90;;;;;;5034008;28;20212;-49
2022/07/08 03:27:26;;;;;;;0.60;0.60;;;12.20;99.90;;;;;;5033996;28;20187;-49
2022/07/08 03:29:51;;;;;;;0.43;0.43;;;12.30;99.90;;;;;;5016422;28;20180;-51
2022/07/08 03:32:17;;;;;;;0.50;0.50;;;12.20;99.90;;;;;;5033849;28;20176;-53
2022/07/08 03:34:43;;;;;;;0.80;0.80;;;12.20;99.90;;;;;;5016017;28;20176;-50
2022/07/08 03:37:09;;;;;;;0.68;0.57;;;12.10;99.90;;;;;;5033888;28;20533;-50
2022/07/08 03:39:35;;;;;;;0.55;0.55;;;12.10;99.90;;;;;;5033667;28;20192;-48
2022/07/08 03:42:00;;;;;;;0.73;0.70;;;12.10;99.90;;;;;;5033874;28;20214;-49
2022/07/08 03:44:26;;;;;;;0.47;0.47;;;12.10;99.90;;;;;;5033744;28;20200;-48
2022/07/08 03:46:52;;;;;;;0.60;0.57;;;12.10;99.90;;;;;;5033515;28;20207;-48
2022/07/08 03:49:17;;;;;;;0.77;0.52;;;12.20;99.90;;;;;;5033730;28;20618;-49
2022/07/08 03:51:43;;;;;;;1.77;0.70;;;12.10;99.90;;;;;;5033654;28;20573;-48
2022/07/08 03:54:09;;;;;;;0.60;0.50;;;12.10;99.90;;;;;;5033533;28;20179;-48
2022/07/08 03:56:35;;;;;;;0.60;0.60;;;12.10;99.90;;;;;;5015636;28;20179;-49
2022/07/08 03:59:01;;;;;;;0.70;0.70;;;12.20;99.90;;;;;;5033509;28;20184;-48
2022/07/08 04:01:27;;;;;;;1.08;0.50;;;12.20;99.90;;;;;;5033262;28;20569;-48
2022/07/08 04:03:52;;;;;;;0.95;0.63;;;12.20;99.90;;;;;;5033248;28;20238;-49
2022/07/08 04:06:18;;;;;;;0.50;0.50;;;12.20;99.90;;;;;;5033436;28;20589;-48
2022/07/08 04:08:44;;;;;;;0.57;0.55;;;12.10;99.90;;;;;;5033433;28;20604;-49
2022/07/08 04:11:11;;;;;;;1.27;0.70;;;12.10;99.90;;;;;;5033400;28;20187;-49
2022/07/08 04:13:37;;;;;;;0.52;0.52;;;12.10;99.90;;;;;;5032861;28;20188;-49
2022/07/08 04:16:05;;;;;;;0.50;0.50;;;12.10;99.90;;;;;;5033098;28;20176;-48
2022/07/08 04:18:31;;;;;;;1.33;1.08;;;12.00;99.90;;;;;;5033310;28;20191;-51
2022/07/08 04:20:57;;;;;;;0.85;0.52;;;12.10;99.90;;;;;;5033355;28;20176;-48
2022/07/08 04:23:23;;;;;;;0.50;0.50;;;12.20;99.90;;;;;;5033017;28;20206;-49
2022/07/08 04:25:49;;;;;;;0.73;0.63;;;12.30;99.90;;;;;;5033119;28;20172;-49
2022/07/08 04:28:15;;;;;;;0.70;0.60;;;12.40;99.90;;;;;;5033164;28;20175;-48
2022/07/08 04:30:41;;;;;;;1.13;0.75;;;12.30;99.90;;;;;;5033312;28;20278;-50
2022/07/08 04:33:08;;;;;;;1.00;0.70;;;12.30;99.90;;;;;;5033359;28;20259;-51
2022/07/08 04:35:36;;;;;;;0.50;0.50;;;12.30;99.90;;;;;;5033185;28;20214;-49
2022/07/08 04:38:01;;;;;;;2.53;0.60;;;12.40;99.90;;;;;;5033007;28;20613;-49
2022/07/08 04:40:28;;;;;;;0.47;0.47;;;12.40;99.90;;;;;;5033055;28;20179;-49
2022/07/08 04:42:54;;;;;;;1.67;1.02;;;12.50;99.90;;;;;;5015265;28;20180;-48
2022/07/08 04:45:20;;;;;;;1.17;0.90;;;12.50;99.90;;;;;;5032870;28;20211;-52
2022/07/08 04:47:46;;;;;;;0.55;0.55;;;12.60;99.90;;;;;;5033106;28;20172;-50
2022/07/08 04:50:12;;;;;;;1.63;0.73;;;12.70;99.90;;;;;;5033007;28;20180;-50
2022/07/08 04:52:37;;;;;;;0.60;0.60;;;12.80;99.90;;;;;;5032881;28;20510;-49
2022/07/08 04:55:03;;;;;;;0.55;0.55;;;12.80;99.90;;;;;;5032966;28;20184;-50
2022/07/08 04:57:32;;;;;;;0.73;0.70;;;12.80;99.90;;;;;;5032882;28;20180;-49
2022/07/08 04:59:59;;;;;;;0.45;0.45;;;12.90;99.90;;;;;;5032811;28;20195;-49
2022/07/08 05:02:26;;;;;;;0.70;0.70;;;13.00;99.90;;;;;;5031448;28;20299;-49
2022/07/08 05:04:52;;;;;;;1.33;1.23;;;13.00;99.90;;;;;;5032752;28;20208;-50
2022/07/08 05:07:18;;;;;;;0.90;0.60;;;13.10;99.90;;;;;;5015147;28;20705;-49
2022/07/08 05:09:44;;;;;;;1.08;0.95;;;13.20;99.90;;;;;;5032839;28;20175;-48
2022/07/08 05:12:10;;;;;;;0.63;0.50;;;13.40;99.90;;;;;;5032553;28;20172;-49
2022/07/08 05:14:36;;;;;;;0.73;0.70;;;13.40;99.90;;;;;;5015143;28;20570;-49
2022/07/08 05:17:02;;;;;;;1.85;1.25;;;13.50;99.90;;;;;;5032611;28;20263;-48
2022/07/08 05:19:28;;;;;;;1.25;0.68;;;13.70;99.90;;;;;;5032693;28;20180;-51
2022/07/08 05:21:53;;;;;;;0.98;0.65;;;13.80;99.90;;;;;;5032657;28;20259;-49
2022/07/08 05:24:19;;;;;;;1.45;0.60;;;13.80;99.90;;;;;;5032498;28;20230;-50
2022/07/08 05:26:45;;;;;;;3.70;1.23;;;13.90;99.90;;;;;;5016863;28;20176;-49
2022/07/08 05:29:11;;;;;;;0.50;0.50;;;14.00;99.90;;;;;;5035790;28;20641;-49
2022/07/08 05:31:36;;;;;;;2.30;0.70;;;14.10;99.90;;;;;;5036219;28;20180;-50
2022/07/08 05:34:02;;;;;;;0.60;0.60;;;14.10;99.90;;;;;;5036079;28;20179;-50
2022/07/08 05:36:29;;;;;;;0.85;0.80;;;14.20;99.90;;;;;;5036093;28;20185;-52
2022/07/08 05:38:55;;;;;;;1.73;0.77;;;14.30;99.90;;;;;;5035805;28;20183;-54
2022/07/08 05:41:20;;;;;;;0.60;0.60;;;14.30;99.90;;;;;;5035785;28;20177;-49
2022/07/08 07:09:35;;;;;;;1.00;0.85;;;17.60;99.90;;;;;;5088069;23;20231;-53
2022/07/08 07:17:12;;;;;;;0.60;0.60;;;18.00;99.90;;;;;;5142331;23;20244;-60
2022/07/08 07:19:37;;;;;;;0.82;0.55;;;18.50;99.90;;;;;;4993842;28;20173;-60
2022/07/08 07:22:04;;;;;;;1.45;0.60;;;18.70;99.90;;;;;;4995142;28;20169;-60
2022/07/08 07:24:29;;;;;;;0.85;0.55;;;18.90;99.90;;;;;;4993501;28;20292;-60
2022/07/08 07:26:55;;;;;;;0.85;0.65;;;18.50;99.90;;;;;;4994702;28;20724;-59
2022/07/08 07:29:21;;;;;;;0.40;0.40;;;18.40;99.90;;;;;;4994679;28;20260;-60
2022/07/08 07:31:47;;;;;;;1.02;0.35;;;18.30;99.90;;;;;;4994496;28;20630;-60
2022/07/08 07:34:13;;;;;;;0.43;0.40;;;18.70;99.90;;;;;;4994714;28;20216;-60
2022/07/08 07:36:38;;;;;;;0.73;0.50;;;18.90;99.90;;;;;;4994563;28;20208;-60
2022/07/08 07:39:04;;;;;;;2.97;0.85;;;19.00;99.90;;;;;;4994472;28;20165;-60
2022/07/08 07:41:30;;;;;;;1.27;0.30;;;18.90;99.90;;;;;;4994479;28;20169;-60
2022/07/08 07:43:55;;;;;;;1.10;0.85;;;18.80;99.90;;;;;;4994225;28;20256;-59
2022/07/08 07:46:21;;;;;;;1.40;0.40;;;18.70;99.90;;;;;;4993166;28;20236;-60
2022/07/08 07:48:47;;;;;;;1.35;0.30;;;19.00;99.90;;;;;;4993974;28;20202;-60
2022/07/08 07:51:13;;;;;;;0.95;0.47;;;18.90;99.90;;;;;;4994366;28;20264;-58
2022/07/08 07:53:38;;;;;;;0.35;0.35;;;18.90;99.90;;;;;;4993147;28;20256;-60
2022/07/08 07:56:04;;;;;;;0.85;0.30;;;19.30;99.90;;;;;;4993142;28;20188;-60
2022/07/08 07:58:30;;;;;;;1.25;0.63;;;19.30;99.90;;;;;;4994156;28;20571;-60
2022/07/08 08:00:56;;;;;;;0.38;0.30;;;19.20;99.90;;;;;;4994066;28;20204;-60
2022/07/08 08:03:22;;;;;;;0.98;0.40;;;19.30;99.90;;;;;;4993182;28;20217;-60
2022/07/08 08:05:47;;;;;;;0.52;0.32;;;19.20;99.90;;;;;;4994078;28;20236;-60
2022/07/08 08:08:13;;;;;;;0.63;0.45;;;19.60;99.90;;;;;;4994098;28;20178;-60
2022/07/08 08:10:39;;;;;;;0.90;0.50;;;20.10;99.90;;;;;;4994052;28;20224;-60
2022/07/08 08:13:05;;;;;;;2.25;0.30;;;20.20;99.90;;;;;;4993968;28;20173;-60
2022/07/08 08:15:32;;;;;;;0.50;0.40;;;20.10;99.90;;;;;;4992666;28;20263;-60
2022/07/08 08:17:59;;;;;;;0.25;0.22;;;20.10;99.90;;;;;;4994272;28;20200;-60
2022/07/08 08:20:26;;;;;;;0.63;0.40;;;20.00;99.90;;;;;;4994330;28;20181;-60
2022/07/08 08:22:56;;;;;;;1.75;0.65;;;20.00;99.90;;;;;;4994026;28;20177;-60
2022/07/08 08:25:22;;;;;;;1.50;0.80;;;20.10;99.90;;;;;;4993821;28;20216;-60
2022/07/08 08:27:48;;;;;;;0.90;0.40;;;20.00;99.90;;;;;;4993860;28;20535;-60
2022/07/08 08:30:16;;;;;;;0.82;0.22;;;20.20;99.90;;;;;;4993720;28;20623;-60
2022/07/08 08:32:41;;;;;;;0.57;0.50;;;20.50;99.90;;;;;;4993898;28;20689;-60
2022/07/08 08:35:09;;;;;;;0.60;0.40;;;20.60;99.90;;;;;;4993903;28;20186;-59
2022/07/08 08:37:35;;;;;;;0.40;0.40;;;20.60;99.90;;;;;;4993738;28;20177;-60
2022/07/08 08:40:21;;;;;;;0.30;0.30;;;20.60;99.90;;;;;;4992564;28;20199;-60
2022/07/08 08:42:47;;;;;;;0.20;0.20;;;20.80;99.90;;;;;;4993950;28;20565;-60
2022/07/08 08:45:16;;;;;;;1.05;0.60;;;21.00;99.90;;;;;;4992391;28;20220;-60
2022/07/08 08:47:47;;;;;;;0.45;0.40;;;21.10;99.90;;;;;;4993814;28;20182;-60
2022/07/08 08:53:02;;;;;;;0.68;0.50;;;21.70;99.90;;;;;;4993839;28;20197;-60
2022/07/08 08:55:33;;;;;;;1.00;0.40;;;21.80;99.90;;;;;;4993818;28;20185;-60
2022/07/08 08:58:04;;;;;;;0.80;0.40;;;21.60;99.90;;;;;;4993754;28;20178;-60
2022/07/08 09:00:31;;;;;;;0.52;0.30;;;21.40;99.90;;;;;;4995225;28;20661;-60
2022/07/08 09:02:58;;;;;;;0.40;0.40;;;21.60;99.90;;;;;;4996196;28;20256;-60
2022/07/08 09:05:25;;;;;;;1.92;0.43;;;21.80;99.90;;;;;;4997160;28;20201;-58
2022/07/08 09:07:51;;;;;;;0.50;0.50;;;21.90;99.90;;;;;;4997837;28;20549;-61
2022/07/08 09:10:18;;;;;;;1.15;0.55;;;22.00;99.90;;;;;;4997352;28;20243;-60
2022/07/08 09:13:02;;;;;;;1.63;0.65;;;22.30;99.90;;;;;;4996115;28;20264;-60
2022/07/08 09:15:33;;;;;;;0.85;0.25;;;22.30;99.90;;;;;;4995814;28;20181;-60
2022/07/08 09:18:07;;;;;;;0.60;0.50;;;22.10;99.90;;;;;;4996901;28;20185;-60
2022/07/08 09:20:39;;;;;;;0.85;0.47;;;22.30;99.90;;;;;;4997338;28;20181;-60
2022/07/08 09:23:10;;;;;;;1.92;0.73;;;22.00;99.90;;;;;;4997202;28;20173;-58
2022/07/08 09:25:36;;;;;;;0.40;0.30;;;22.30;99.90;;;;;;4995664;28;20209;-60
2022/07/08 09:28:02;;;;;;;1.02;0.50;;;22.50;99.90;;;;;;4996953;28;20184;-60
2022/07/08 09:30:31;;;;;;;0.80;0.50;;;22.50;99.90;;;;;;4995521;28;20664;-61
2022/07/08 09:33:01;;;;;;;1.08;0.47;;;22.30;99.90;;;;;;4996999;28;20189;-61
2022/07/08 09:35:37;;;;;;;1.80;0.45;;;22.60;99.90;;;;;;4996898;28;20251;-60
2022/07/08 09:38:07;;;;;;;1.30;0.50;;;22.90;99.90;;;;;;4997070;28;20203;-60
2022/07/08 09:40:34;;;;;;;0.95;0.40;;;23.00;99.90;;;;;;4996741;28;20192;-60
2022/07/08 09:43:12;;;;;;;1.13;0.57;;;22.80;99.90;;;;;;4996485;28;20188;-60
2022/07/08 09:45:37;;;;;;;0.77;0.40;;;22.90;99.90;;;;;;4996864;28;20239;-60
2022/07/08 09:48:05;;;;;;;0.40;0.40;;;23.10;99.90;;;;;;4996920;28;20181;-60
2022/07/08 09:50:40;;;;;;;0.45;0.45;;;23.30;99.90;;;;;;4996497;28;20252;-60
2022/07/08 09:53:17;;;;;;;0.47;0.47;;;22.80;99.30;;;;;;4996481;28;20219;-60
2022/07/08 09:55:51;;;;;;;1.02;0.60;;;22.60;99.90;;;;;;4996603;28;20177;-60
2022/07/08 09:58:17;;;;;;;0.60;0.40;;;22.80;99.90;;;;;;4996580;28;20196;-58
2022/07/08 10:00:44;;;;;;;0.60;0.35;;;23.30;99.90;;;;;;4996386;28;20292;-57
2022/07/08 10:03:10;;;;;;;0.45;0.40;;;23.40;99.90;;;;;;4996395;28;20185;-61
2022/07/08 10:05:36;;;;;;;0.43;0.30;;;23.60;99.90;;;;;;4996079;28;20251;-59
2022/07/08 10:08:02;;;;;;;1.63;0.60;;;23.90;99.90;;;;;;4996048;28;20201;-58
2022/07/08 10:10:29;;;;;;;0.75;0.43;;;23.70;99.70;;;;;;4996411;28;20177;-59
2022/07/08 10:12:58;;;;;;;0.50;0.40;;;23.70;99.90;;;;;;4995449;28;20574;-55
2022/07/08 10:15:28;;;;;;;1.38;0.30;;;23.80;99.60;;;;;;4996252;28;20516;-58
2022/07/08 10:18:01;;;;;;;0.75;0.52;;;24.20;99.90;;;;;;4996264;28;20212;-58
2022/07/08 10:20:31;;;;;;;1.73;0.60;;;24.20;99.10;;;;;;4996063;28;20196;-59
2022/07/08 10:23:05;;;;;;;0.95;0.50;;;24.10;99.50;;;;;;4995997;28;20182;-58
2022/07/08 10:25:31;;;;;;;0.57;0.50;;;24.00;99.50;;;;;;4995939;28;20209;-56
2022/07/08 10:28:05;;;;;;;2.08;0.55;;;24.20;99.80;;;;;;4995789;28;20213;-58
2022/07/08 10:30:48;;;;;;;0.50;0.47;;;24.00;98.50;;;;;;4995651;28;20176;-54
2022/07/08 10:33:18;;;;;;;0.47;0.47;;;23.90;98.20;;;;;;4995855;28;20173;-59
2022/07/08 10:36:04;;;;;;;1.38;0.50;;;24.20;98.90;;;;;;4995818;28;20177;-58
2022/07/08 10:38:33;;;;;;;0.98;0.57;;;24.30;99.30;;;;;;4995614;28;20187;-58
2022/07/08 10:41:20;;;;;;;1.27;0.60;;;24.50;98.50;;;;;;4995605;28;20223;-58
2022/07/08 10:43:53;;;;;;;0.47;0.30;;;24.50;98.80;;;;;;4995346;28;20174;-58
2022/07/08 10:46:24;;;;;;;0.85;0.60;;;24.80;98.90;;;;;;4994125;28;20185;-58
2022/07/08 10:49:00;;;;;;;0.55;0.40;;;25.00;97.90;;;;;;4995541;28;20181;-58
2022/07/08 10:51:26;;;;;;;1.17;0.57;;;25.10;98.40;;;;;;4995394;28;20268;-58
2022/07/08 10:53:56;;;;;;;0.70;0.28;;;25.10;98.00;;;;;;4995347;28;20165;-58
2022/07/08 10:56:53;;;;;;;0.73;0.40;;;25.10;97.60;;;;;;4995786;28;20169;-58
2022/07/08 10:59:32;;;;;;;1.35;0.50;;;24.90;97.30;;;;;;4994157;28;20189;-57
2022/07/08 11:02:12;;;;;;;1.60;0.32;;;25.00;96.80;;;;;;4995207;28;20627;-58
2022/07/08 11:04:37;;;;;;;0.65;0.40;;;24.70;96.60;;;;;;4995105;28;20204;-59
2022/07/08 11:07:26;;;;;;;0.68;0.47;;;24.20;96.50;;;;;;4995132;28;20247;-58
2022/07/08 11:09:57;;;;;;;0.50;0.30;;;24.70;96.90;;;;;;4995026;28;20693;-58
2022/07/08 11:12:28;;;;;;;0.47;0.30;;;24.50;96.60;;;;;;4994965;28;20235;-58
2022/07/08 11:14:56;;;;;;;1.65;0.65;;;24.80;96.70;;;;;;4995019;28;20184;-59
2022/07/08 11:17:24;;;;;;;0.25;0.25;;;24.80;96.90;;;;;;4994766;28;20195;-58
2022/07/08 11:19:51;;;;;;;0.50;0.50;;;25.00;96.80;;;;;;4994828;28;20181;-59
2022/07/08 11:22:18;;;;;;;0.57;0.50;;;25.30;97.20;;;;;;4994603;28;20181;-59
2022/07/08 11:24:45;;;;;;;2.30;0.50;;;25.40;96.90;;;;;;4993601;28;20255;-58
2022/07/08 11:27:11;;;;;;;0.40;0.30;;;25.50;97.00;;;;;;4977252;28;20264;-59
2022/07/08 11:29:37;;;;;;;0.35;0.30;;;25.60;97.10;;;;;;4994542;28;20636;-59
2022/07/08 11:32:05;;;;;;;1.05;0.40;;;25.70;96.50;;;;;;4994640;28;20177;-59
2022/07/08 11:34:31;;;;;;;1.83;0.50;;;25.90;96.70;;;;;;4994721;28;20182;-61
2022/07/08 11:36:59;;;;;;;1.80;0.50;;;26.00;96.50;;;;;;4994427;28;20634;-59
2022/07/08 11:39:25;;;;;;;0.95;0.45;;;25.90;96.70;;;;;;4994449;28;20185;-59
2022/07/08 11:41:51;;;;;;;0.82;0.60;;;25.60;96.00;;;;;;4994248;28;20181;-59
2022/07/08 11:44:21;;;;;;;0.40;0.40;;;25.90;96.10;;;;;;4994372;28;20566;-59
2022/07/08 11:46:49;;;;;;;0.30;0.30;;;26.00;95.70;;;;;;4994160;28;20658;-59
2022/07/08 11:49:16;;;;;;;0.60;0.40;;;25.90;96.60;;;;;;4994527;28;20542;-59
2022/07/08 11:51:48;;;;;;;0.77;0.38;;;26.10;96.70;;;;;;4994312;28;20264;-58
2022/07/08 11:54:15;;;;;;;0.40;0.40;;;26.10;95.50;;;;;;4994079;28;20177;-59
2022/07/08 11:56:41;;;;;;;0.30;0.20;;;25.40;95.60;;;;;;4994130;28;20689;-59
2022/07/08 11:59:07;;;;;;;0.40;0.35;;;25.50;95.70;;;;;;4994154;28;20520;-58
2022/07/08 12:01:35;;;;;;;0.52;0.40;;;25.20;95.60;;;;;;4993026;28;20231;-59
2022/07/08 12:04:05;;;;;;;0.30;0.30;;;25.30;95.40;;;;;;4994019;28;20669;-59
2022/07/08 12:06:31;;;;;;;0.40;0.30;;;25.30;95.80;;;;;;4994202;28;20177;-58
2022/07/08 12:08:57;;;;;;;1.95;0.40;;;25.50;96.50;;;;;;4992682;28;20182;-59
2022/07/08 12:11:25;;;;;;;0.63;0.30;;;25.60;95.60;;;;;;4994099;28;20181;-59
2022/07/08 12:13:52;;;;;;;0.55;0.43;;;25.70;95.80;;;;;;4994211;28;20169;-59
2022/07/08 12:16:51;;;;;;;0.30;0.30;;;26.10;96.20;;;;;;4993900;28;20561;-59
2022/07/08 12:19:34;;;;;;;0.52;0.40;;;26.30;96.10;;;;;;4992997;28;20177;-59
2022/07/08 12:22:02;;;;;;;0.90;0.30;;;26.50;95.50;;;;;;4993909;28;20170;-59
2022/07/08 12:24:35;;;;;;;0.85;0.40;;;26.40;95.20;;;;;;4993877;28;20282;-59
2022/07/08 12:27:06;;;;;;;0.77;0.40;;;26.20;94.30;;;;;;4993954;28;20252;-59
2022/07/08 12:29:37;;;;;;;0.52;0.25;;;26.00;95.00;;;;;;4993818;28;20657;-58
2022/07/08 12:32:10;;;;;;;0.32;0.30;;;26.00;95.60;;;;;;4994056;28;20181;-59
2022/07/08 12:34:36;;;;;;;0.55;0.40;;;26.10;95.50;;;;;;4994109;28;20280;-59
2022/07/08 12:37:16;;;;;;;0.60;0.30;;;26.20;95.80;;;;;;4997866;28;20184;-59
2022/07/08 12:39:43;;;;;;;0.30;0.30;;;26.20;95.00;;;;;;4997881;28;20173;-59
2022/07/08 12:42:09;;;;;;;1.27;0.47;;;26.30;95.40;;;;;;4997598;28;20181;-61
2022/07/08 12:44:40;;;;;;;0.70;0.43;;;26.50;94.80;;;;;;4996317;28;20575;-59
2022/07/08 12:47:10;;;;;;;1.08;0.50;;;25.90;95.80;;;;;;4997589;28;20181;-59
2022/07/08 12:49:39;;;;;;;0.70;0.50;;;25.80;95.20;;;;;;4997715;28;20656;-58
2022/07/08 12:52:06;;;;;;;0.75;0.60;;;25.30;95.00;;;;;;4996384;28;20170;-59
2022/07/08 12:54:33;;;;;;;0.35;0.35;;;25.30;95.00;;;;;;4997446;28;20204;-59
2022/07/08 12:57:00;;;;;;;0.30;0.30;;;25.00;96.30;;;;;;4997611;28;20224;-59
2022/07/08 12:59:26;;;;;;;0.55;0.30;;;25.10;96.30;;;;;;4997383;28;20189;-59
2022/07/08 13:01:53;;;;;;;0.30;0.30;;;24.60;96.50;;;;;;4997373;28;20185;-60
2022/07/08 13:04:19;;;;;;;0.40;0.40;;;24.90;96.90;;;;;;4997276;28;20284;-58
2022/07/08 13:06:47;;;;;;;0.30;0.28;;;25.10;96.30;;;;;;4997263;28;20173;-58
2022/07/08 13:09:13;;;;;;;0.20;0.20;;;25.40;95.90;;;;;;4997137;28;20177;-59
2022/07/08 13:11:40;;;;;;;0.95;0.40;;;24.70;95.60;;;;;;4997346;28;20272;-59
2022/07/08 13:14:07;;;;;;;0.40;0.30;;;24.50;96.00;;;;;;4997065;28;20189;-59
2022/07/08 13:16:32;;;;;;;0.82;0.57;;;24.90;96.00;;;;;;4996786;28;20197;-58
2022/07/08 13:18:58;;;;;;;0.30;0.30;;;25.30;96.30;;;;;;4997114;28;20653;-59
2022/07/08 13:21:24;;;;;;;0.40;0.40;;;25.60;95.60;;;;;;4996949;28;20170;-59
2022/07/08 13:23:50;;;;;;;0.57;0.47;;;25.40;94.90;;;;;;4996844;28;20254;-59
2022/07/08 13:26:15;;;;;;;0.60;0.25;;;25.00;96.00;;;;;;4997118;28;20212;-59
2022/07/08 13:28:41;;;;;;;0.90;0.40;;;25.50;95.60;;;;;;4997024;28;20216;-59
2022/07/08 13:31:07;;;;;;;0.40;0.40;;;25.70;95.90;;;;;;4997226;28;20185;-57
2022/07/08 13:33:32;;;;;;;0.40;0.25;;;25.90;95.90;;;;;;4996800;28;20181;-59
2022/07/08 13:35:59;;;;;;;0.25;0.25;;;26.00;95.50;;;;;;4996758;28;20247;-58
2022/07/08 13:38:25;;;;;;;0.63;0.38;;;25.70;95.10;;;;;;4996563;28;20219;-59
2022/07/08 13:40:51;;;;;;;0.40;0.40;;;25.40;96.30;;;;;;4996891;28;20170;-59
2022/07/08 13:43:20;;;;;;;0.30;0.30;;;25.40;96.10;;;;;;4996791;28;20165;-59
2022/07/08 13:45:46;;;;;;;0.32;0.22;;;25.50;96.00;;;;;;4996379;28;20737;-58
2022/07/08 13:48:12;;;;;;;0.40;0.40;;;25.70;95.90;;;;;;4995630;28;20174;-59
2022/07/08 13:50:38;;;;;;;1.73;0.50;;;25.90;94.60;;;;;;4996550;28;20635;-59
2022/07/08 13:53:04;;;;;;;0.20;0.20;;;25.90;94.60;;;;;;4996395;28;20578;-59
2022/07/08 13:55:30;;;;;;;0.30;0.30;;;26.10;94.70;;;;;;4995285;28;20177;-59
2022/07/08 13:57:56;;;;;;;0.75;0.45;;;26.30;94.90;;;;;;4996504;28;20181;-59
2022/07/08 14:00:21;;;;;;;0.28;0.28;;;26.30;94.00;;;;;;4996418;28;20231;-58
2022/07/08 14:02:47;;;;;;;0.52;0.30;;;25.80;93.90;;;;;;4996360;28;20170;-59
2022/07/08 14:05:13;;;;;;;0.52;0.32;;;25.80;94.00;;;;;;4996131;28;20239;-59
2022/07/08 14:07:39;;;;;;;0.35;0.30;;;25.50;94.20;;;;;;4996079;28;20178;-59
2022/07/08 14:10:05;;;;;;;0.22;0.22;;;25.60;94.00;;;;;;4996096;28;20173;-59
2022/07/08 14:12:31;;;;;;;0.43;0.30;;;25.80;94.60;;;;;;4996038;28;20173;-58
2022/07/08 14:14:58;;;;;;;1.00;0.35;;;26.10;94.80;;;;;;4995945;28;20239;-59
2022/07/08 14:17:24;;;;;;;1.55;0.38;;;26.10;93.90;;;;;;4995809;28;20201;-58
2022/07/08 14:19:50;;;;;;;1.05;0.47;;;25.40;93.90;;;;;;4995991;28;20642;-59
2022/07/08 14:22:15;;;;;;;1.15;0.45;;;25.30;93.50;;;;;;4995803;28;20181;-59
2022/07/08 14:24:42;;;;;;;0.40;0.30;;;25.70;94.00;;;;;;4995943;28;20213;-59
2022/07/08 14:27:08;;;;;;;0.52;0.30;;;25.90;93.60;;;;;;4995976;28;20181;-58